ADDS TAF Data INFO
IDs: Format: Raw Decoded Include METARs

Data at: 1513 UTC 26 Apr 2018

KHOB 261450Z 18015G21KT 10SM SKC 15/03 A3004

KHOB 261506Z 2615/2712 18014G20KT P6SM FEW150 SCT250
  FM261800 20011KT P6SM SCT250
  FM262100 36013KT P6SM FEW150 SCT250
  FM262300 01025G33KT P6SM SCT250